Aviation Digital Data Service (ADDS)

Output produced by METARs form (1329 UTC 27 July 2016)
found at http://aviationweather.gov/adds/metars/
 
KRWI 271126Z 2712/2812 VRB03KT P6SM SCT150 BKN250 
     FM271800 24006KT P6SM SCT050 
     PROB30 2721/2803 VRB15G30KT 2SM TSRA BKN025CB